Etusivu
METAR-TAF:

METAR-TAF

Lentoasemat :

Hemphill County Airport

Canadian, Texas, Yhdysvallat

Leveyspiiri: 35-54N, Pituuspiiri: 100-24W, korkeus merenpinnasta: 730 m

Tämänhetkinen sää

Tämä raportti tehtiin 26 minuuttia sitten, kello 01.55 UTC
Tuuli 12 kn idästä/kaakosta
Lämpötila 18°C
Kosteus 83%
Ilmanpaine 1008 hPa
Näkyvyys: 16.1 km
Hajanaisia pilviä 4100 ft:n korkeudessa
Hajonneita pilviä 7000 ft:n korkeudessa
Pilvistä 9000 ft:n korkeudessa
ukkosmyrsky, heikkoa sadetta

METAR: KHHF 250155Z AUTO 12012KT 10SM -TSRA SCT041 BKN070 OVC090 18/15 A2976 RMK AO2 LTG DSNT ALQS P0006 T01840146

Aika: 21:21 (02:21 UTC)


TAF: puuttuu

Säähavainnot ja -ennusteet yli 4000 lentoasemalta (METAR- ja TAF-raportit).

Käytössä olevat sääasemat on merkitty karttaan keltaisilla ja punaisilla pisteillä.

Aseta hiiri pisteen päälle nähdäksesi sääaseman nimen.

Klikkaa sitten nähdäksesi säähavainnot ja -ennusteet.

Kartan vaihtaminen: klikkaa mustalla rastilla varustettuja vihreitä pisteitä, niin voit zoomata sisään; viivalla varustettua vihreää pistettä, niin voit zoomata ulos tai vihreitä nuolia, niin pääset viereisille kartoille.


METAR-TAF: